Fedhaven, Florida
Current Conditions -  °F | °C
As of 2:55 AM on Friday 31 Oct 2014 (Local Time) from KBOW Reporting Station
Broken Clouds Broken Clouds  
Wind Chill: 21°   Ceiling: 8000
Heat Index: 21°   Visibility: 10mi
Dew Point: 20°   Wind: 5mph
Humidity: 94%   Direction: 300°WNW
Pressure: 29.86"   Gusts: NA
Location:  27.86°N, 81.41°W
Report Text: KBOW 310655Z AUTO 30004KT 10SM BKN080 21/20 A2986 RMK AO2
Loading
Personal Weather Stations






























Interactive Weather Map
Tropical Storm Tracking
New forecast layout! Learn more

10-Day Weather Forecast

Advertisements
Track Severe Weather on mobile